Strona główna
METAR-TAF:

METAR-TAF

Lotnisko :

Cairns, Australia

Port lotniczy Cairns

Szerokość geograficzna: 16-53S, Długość geograficzna: 145-45E, wysokość: 3 m

Aktualna obserwacja pogody

Raport powstał 13 minut temu, godzina 19:00 UTC
Cisza
Temperatura 16°C
Wilgotność 94%
Ciśnienie 1013 hPa
Widzialność 10 km lub więcej
Mało chmury na wysokości 2500 ft

METAR: YBCS 261900Z 00000KT 9999 FEW025 16/15 Q1013 NOSIG

czas: 05:13 (19:13 UTC)

Prognoza

Raport powstał 2 godziny i 11 minut temu, godzina 17:02 UTC
Prognoza ważna od 26 godzina 18 UTC do 27 godzina 18 UTC
Wiatr 5 kt od południowo-południowy wschód
Widzialność 10 km lub więcej
Brak chmur poniżej 1500 m i brak chmur cumulonimbus
Od 27 godzina 0100 UTC
Wiatr 12 kt od wschodnio-południowy wschód
Widzialność 10 km lub więcej
Mało chmury na wysokości 3500 ft
Od 27 godzina 0800 UTC
Wiatr 6 kt od południowo-południowy wschód
Widzialność 10 km lub więcej
Mało chmury na wysokości 2500 ft

TAF: YBCS 261702Z 2618/2718 16005KT CAVOK FM270100 12012KT 9999 FEW035 FM270800 16006KT 9999 FEW025

Obserwacja i prognoza pogody dla ponad 4000 lotnisk (raport METAR i TAF).

Dostępne stacje oznaczono żółtymi i czerwonymi punktami na mapie.

Najedź kursorem aby zobaczyć nazwę stacji.

Kliknij aby zobaczyć obserwacje i prognozy pogody.

Aby zmienić mapę: kliknij na zielony przycisk z czarnym krzyżykiem, aby powiększyć; na zielony przycisk z myślnikiem, aby pomniejszyć; na zielone strzałki, aby przejść do map sąsiednich.


METAR-TAF: